Observation data for Slaton on 08/06/2020      Previous  Date       Current Mesonet Observations  Soil Data  Daily Summary Page  Observations in Plain Language
KSLS 060500Z 10012KT 27/16 A30 RMK A01 T02740161  RH  051%=      5-min Rain = 0
KSLS 060505Z 10009KT 27/16 A30 RMK A01 T02720162  RH  052%=      5-min Rain = 0
KSLS 060510Z 11010KT 27/16 A30 RMK A01 T02710162  RH  052%=      5-min Rain = 0
KSLS 060515Z 14007KT 27/16 A3001 RMK A01 T02690159  RH  052%=      5-min Rain = 0
KSLS 060520Z 11008KT 27/16 A3001 RMK A01 T02660159  RH  053%=      5-min Rain = 0
KSLS 060525Z 10010KT 27/16 A3001 RMK A01 T02660163  RH  054%=      5-min Rain = 0
KSLS 060530Z 10011KT 27/16 A3001 RMK A01 T02670163  RH  054%=      5-min Rain = 0
KSLS 060535Z 10010KT 27/16 A3001 RMK A01 T02650163  RH  055%=      5-min Rain = 0
KSLS 060540Z 10011KT 27/16 A3001 RMK A01 T02660164  RH  055%=      5-min Rain = 0
KSLS 060545Z 11008KT 27/17 A3001 RMK A01 T02650165  RH  055%=      5-min Rain = 0
KSLS 060550Z 11007KT 26/17 A3001 RMK A01 T02630165  RH  056%=      5-min Rain = 0
KSLS 060555Z 12007KT 26/16 A3001 RMK A01 T02620164  RH  056%=      5-min Rain = 0
KSLS 060600Z 12006KT 26/16 A30 RMK A01 T02610164  RH  057%=      5-min Rain = 0
KSLS 060605Z 12007KT 26/17 A30 RMK A01 T02610166  RH  057%=      5-min Rain = 0
KSLS 060610Z 12008KT 26/17 A30 RMK A01 T02600166  RH  058%=      5-min Rain = 0
KSLS 060615Z 12007KT 26/17 A30 RMK A01 T02600168  RH  058%=      5-min Rain = 0
KSLS 060620Z 11008KT 26/17 A30 RMK A01 T02590170  RH  059%=      5-min Rain = 0
KSLS 060625Z 12008KT 26/17 A30 RMK A01 T02590170  RH  059%=      5-min Rain = 0
KSLS 060630Z 12007KT 26/17 A30 RMK A01 T02570170  RH  060%=      5-min Rain = 0
KSLS 060635Z 11009KT 26/17 A30 RMK A01 T02560170  RH  060%=      5-min Rain = 0
KSLS 060640Z 11007KT 26/17 A30 RMK A01 T02550172  RH  061%=      5-min Rain = 0
KSLS 060645Z 11007KT 25/17 A30 RMK A01 T02530171  RH  062%=      5-min Rain = 0
KSLS 060650Z 11006KT 25/17 A30 RMK A01 T02520173  RH  063%=      5-min Rain = 0
KSLS 060655Z 11006KT 25/17 A30 RMK A01 T02500173  RH  064%=      5-min Rain = 0
KSLS 060700Z 12005KT 25/17 A30 RMK A01 T02490173  RH  064%=      5-min Rain = 0
KSLS 060705Z 11005KT 25/18 A30 RMK A01 T02480175  RH  065%=      5-min Rain = 0
KSLS 060710Z 11005KT 25/18 A30 RMK A01 T02470175  RH  066%=      5-min Rain = 0
KSLS 060715Z 12005KT 25/18 A30 RMK A01 T02460175  RH  066%=      5-min Rain = 0
KSLS 060720Z 12006KT 24/17 A30 RMK A01 T02440174  RH  067%=      5-min Rain = 0
KSLS 060725Z 12006KT 24/18 A30 RMK A01 T02420175  RH  068%=      5-min Rain = 0
KSLS 060730Z 12005KT 24/18 A30 RMK A01 T02410175  RH  068%=      5-min Rain = 0
KSLS 060735Z 12006KT 24/18 A30 RMK A01 T02380175  RH  069%=      5-min Rain = 0
KSLS 060740Z 12005KT 24/18 A3001 RMK A01 T02370175  RH  070%=      5-min Rain = 0
KSLS 060745Z 13005KT 23/18 A3001 RMK A01 T02340175  RH  071%=      5-min Rain = 0
KSLS 060750Z 13005KT 23/18 A3001 RMK A01 T02320176  RH  073%=      5-min Rain = 0
KSLS 060755Z 13006KT 23/18 A3001 RMK A01 T02310176  RH  073%=      5-min Rain = 0
KSLS 060800Z 12006KT 23/18 A30 RMK A01 T02310177  RH  074%=      5-min Rain = 0
KSLS 060805Z 13006KT 23/18 A30 RMK A01 T02300177  RH  074%=      5-min Rain = 0
KSLS 060810Z 13006KT 23/18 A30 RMK A01 T02290178  RH  075%=      5-min Rain = 0
KSLS 060815Z 12006KT 23/18 A30 RMK A01 T02280178  RH  075%=      5-min Rain = 0
KSLS 060820Z 13005KT 23/18 A30 RMK A01 T02290178  RH  075%=      5-min Rain = 0
KSLS 060825Z 13005KT 23/18 A30 RMK A01 T02270178  RH  076%=      5-min Rain = 0
KSLS 060830Z 13006KT 23/18 A30 RMK A01 T02260177  RH  076%=      5-min Rain = 0
KSLS 060835Z 14007KT 23/18 A30 RMK A01 T02280176  RH  074%=      5-min Rain = 0
KSLS 060840Z 14007KT 23/18 A30 RMK A01 T02300177  RH  074%=      5-min Rain = 0
KSLS 060845Z 14008KT 23/18 A30 RMK A01 T02310178  RH  074%=      5-min Rain = 0
KSLS 060850Z 14007KT 23/18 A30 RMK A01 T02310178  RH  074%=      5-min Rain = 0
KSLS 060855Z 14006KT 23/18 A30 RMK A01 T02290179  RH  075%=      5-min Rain = 0
KSLS 060900Z 14006KT 23/18 A30 RMK A01 T02270179  RH  076%=      5-min Rain = 0
KSLS 060905Z 14006KT 23/18 A30 RMK A01 T02260179  RH  076%=      5-min Rain = 0
KSLS 060910Z 13006KT 23/18 A30 RMK A01 T02250179  RH  077%=      5-min Rain = 0
KSLS 060915Z 14006KT 23/18 A30 RMK A01 T02250179  RH  077%=      5-min Rain = 0
KSLS 060920Z 15007KT 23/18 A30 RMK A01 T02280175  RH  074%=      5-min Rain = 0
KSLS 060925Z 17007KT 24/17 A30 RMK A01 T02350168  RH  068%=      5-min Rain = 0
KSLS 060930Z 17007KT 24/16 A30 RMK A01 T02410160  RH  062%=      5-min Rain = 0
KSLS 060935Z 18007KT 25/15 A30 RMK A01 T02450153  RH  058%=      5-min Rain = 0
KSLS 060940Z 19009KT 25/15 A30 RMK A01 T02530147  RH  053%=      5-min Rain = 0
KSLS 060945Z 19009KT 26/15 A30 RMK A01 T02550146  RH  052%=      5-min Rain = 0
KSLS 060950Z 18009KT 26/15 A30 RMK A01 T02550146  RH  052%=      5-min Rain = 0
KSLS 060955Z 18009KT 26/15 A30 RMK A01 T02550146  RH  052%=      5-min Rain = 0
KSLS 061000Z 17008KT 25/15 A30 RMK A01 T02540146  RH  052%=      5-min Rain = 0
KSLS 061005Z 17009KT 26/15 A30 RMK A01 T02550145  RH  052%=      5-min Rain = 0
KSLS 061010Z 18008KT 26/15 A30 RMK A01 T02550145  RH  052%=      5-min Rain = 0
KSLS 061015Z 18009KT 26/15 A30 RMK A01 T02560145  RH  051%=      5-min Rain = 0
KSLS 061020Z 18011KT 26/15 A30 RMK A01 T02580145  RH  051%=      5-min Rain = 0
KSLS 061025Z 18010KT 26/14 A30 RMK A01 T02580144  RH  050%=      5-min Rain = 0
KSLS 061030Z 18009G14KT 26/15 A30 RMK A01 T02580145  RH  051%=      5-min Rain = 0
KSLS 061035Z 18009KT 26/15 A30 RMK A01 T02580145  RH  051%=      5-min Rain = 0
KSLS 061040Z 18010KT 26/14 A3001 RMK A01 T02590144  RH  050%=      5-min Rain = 0
KSLS 061045Z 18009KT 26/15 A3001 RMK A01 T02580145  RH  051%=      5-min Rain = 0
KSLS 061050Z 18009KT 26/14 A3001 RMK A01 T02580144  RH  051%=      5-min Rain = 0
KSLS 061055Z 18009KT 26/15 A3001 RMK A01 T02570145  RH  051%=      5-min Rain = 0
KSLS 061100Z 18010KT 26/15 A3001 RMK A01 T02560145  RH  051%=      5-min Rain = 0
KSLS 061105Z 18010KT 26/14 A3001 RMK A01 T02550144  RH  051%=      5-min Rain = 0
KSLS 061110Z 18010KT 25/15 A3001 RMK A01 T02540145  RH  052%=      5-min Rain = 0
KSLS 061115Z 19010KT 25/15 A3001 RMK A01 T02540145  RH  052%=      5-min Rain = 0
KSLS 061120Z 19010KT 25/15 A3001 RMK A01 T02520145  RH  053%=      5-min Rain = 0
KSLS 061125Z 19011KT 25/15 A3001 RMK A01 T02520145  RH  053%=      5-min Rain = 0
KSLS 061130Z 19011KT 25/15 A3001 RMK A01 T02520145  RH  053%=      5-min Rain = 0
KSLS 061135Z 19012KT 25/15 A3001 RMK A01 T02520145  RH  053%=      5-min Rain = 0
KSLS 061140Z 19012KT 25/15 A3001 RMK A01 T02520146  RH  053%=      5-min Rain = 0
KSLS 061145Z 19013KT 25/15 A3001 RMK A01 T02520146  RH  053%=      5-min Rain = 0
KSLS 061150Z 19013KT 25/15 A3002 RMK A01 T02520146  RH  053%=      5-min Rain = 0
KSLS 061155Z 19013KT 25/15 A3002 RMK A01 T02520146  RH  053%=      5-min Rain = 0
KSLS 061200Z 19012KT 25/15 A3002 RMK A01 T02510147  RH  054%=      5-min Rain = 0
KSLS 061205Z 19012KT 25/15 A3002 RMK A01 T02510148  RH  054%=      5-min Rain = 0
KSLS 061210Z 20011KT 25/15 A3002 RMK A01 T02500148  RH  054%=      5-min Rain = 0
KSLS 061215Z 20012KT 25/15 A3002 RMK A01 T02500149  RH  054%=      5-min Rain = 0
KSLS 061220Z 20012KT 25/15 A3002 RMK A01 T02500149  RH  055%=      5-min Rain = 0
KSLS 061225Z 20013KT 25/15 A3002 RMK A01 T02510150  RH  055%=      5-min Rain = 0
KSLS 061230Z 20012KT 25/15 A3002 RMK A01 T02500150  RH  055%=      5-min Rain = 0
KSLS 061235Z 20011KT 25/15 A3002 RMK A01 T02490151  RH  056%=      5-min Rain = 0
KSLS 061240Z 20011G16KT 25/15 A3002 RMK A01 T02490152  RH  056%=      5-min Rain = 0
KSLS 061245Z 20012KT 25/15 A3002 RMK A01 T02490153  RH  056%=      5-min Rain = 0
KSLS 061250Z 20012KT 25/15 A3003 RMK A01 T02490153  RH  057%=      5-min Rain = 0
KSLS 061255Z 20011KT 25/15 A3003 RMK A01 T02490154  RH  057%=      5-min Rain = 0
KSLS 061300Z 20012KT 25/15 A3003 RMK A01 T02480154  RH  057%=      5-min Rain = 0
KSLS 061305Z 21012KT 25/16 A3003 RMK A01 T02480155  RH  058%=      5-min Rain = 0
KSLS 061310Z 21012KT 25/16 A3003 RMK A01 T02480155  RH  058%=      5-min Rain = 0
KSLS 061315Z 21012KT 25/16 A3003 RMK A01 T02480156  RH  058%=      5-min Rain = 0
KSLS 061320Z 20012KT 25/16 A3003 RMK A01 T02490157  RH  058%=      5-min Rain = 0
KSLS 061325Z 21012KT 25/16 A3003 RMK A01 T02510157  RH  057%=      5-min Rain = 0
KSLS 061330Z 21012KT 25/16 A3003 RMK A01 T02480158  RH  058%=      5-min Rain = 0
KSLS 061335Z 20012KT 25/16 A3002 RMK A01 T02470158  RH  059%=      5-min Rain = 0
KSLS 061340Z 20012KT 25/16 A3003 RMK A01 T02460159  RH  059%=      5-min Rain = 0
KSLS 061345Z 20013KT 25/16 A3003 RMK A01 T02500161  RH  059%=      5-min Rain = 0
KSLS 061350Z 20013G18KT 26/16 A3002 RMK A01 T02570162  RH  057%=      5-min Rain = 0
KSLS 061355Z 20014KT 26/16 A3002 RMK A01 T02590162  RH  057%=      5-min Rain = 0
KSLS 061400Z 20013KT 26/16 A3003 RMK A01 T02630164  RH  056%=      5-min Rain = 0
KSLS 061405Z 20015KT 26/16 A3003 RMK A01 T02640164  RH  056%=      5-min Rain = 0
KSLS 061410Z 20015G20KT 27/16 A3003 RMK A01 T02660164  RH  055%=      5-min Rain = 0
KSLS 061415Z 21018G23KT 27/16 A3002 RMK A01 T02660162  RH  054%=      5-min Rain = 0
KSLS 061420Z 20016G21KT 27/16 A3003 RMK A01 T02690164  RH  054%=      5-min Rain = 0
KSLS 061425Z 20018G23KT 27/16 A3003 RMK A01 T02690163  RH  053%=      5-min Rain = 0
KSLS 061430Z 20017G25KT 27/16 A3003 RMK A01 T02710164  RH  053%=      5-min Rain = 0
KSLS 061435Z 20018KT 27/16 A3002 RMK A01 T02730164  RH  053%=      5-min Rain = 0
KSLS 061440Z 20020G25KT 27/16 A3002 RMK A01 T02730163  RH  052%=      5-min Rain = 0
KSLS 061445Z 19020G25KT 27/16 A3002 RMK A01 T02720161  RH  052%=      5-min Rain = 0
KSLS 061450Z 20017G22KT 27/16 A3002 RMK A01 T02700163  RH  053%=      5-min Rain = 0
KSLS 061455Z 20016G22KT 28/16 A3002 RMK A01 T02750164  RH  052%=      5-min Rain = 0
KSLS 061500Z 20018KT 27/16 A3002 RMK A01 T02730162  RH  052%=      5-min Rain = 0
KSLS 061505Z 20018G25KT 28/16 A3002 RMK A01 T02800162  RH  050%=      5-min Rain = 0
KSLS 061510Z 21017KT 29/16 A3003 RMK A01 T02890162  RH  047%=      5-min Rain = 0
KSLS 061515Z 21017KT 29/16 A3003 RMK A01 T02850160  RH  048%=      5-min Rain = 0
KSLS 061520Z 21015G20KT 28/16 A3003 RMK A01 T02820159  RH  048%=      5-min Rain = 0
KSLS 061525Z 21015KT 28/16 A3003 RMK A01 T02800160  RH  049%=      5-min Rain = 0
KSLS 061530Z 21014G19KT 28/16 A3003 RMK A01 T02830160  RH  048%=      5-min Rain = 0
KSLS 061535Z 20014KT 28/16 A3003 RMK A01 T02840159  RH  048%=      5-min Rain = 0
KSLS 061540Z 21015G20KT 28/15 A3004 RMK A01 T02830154  RH  046%=      5-min Rain = 0
KSLS 061545Z 20014KT 28/16 A3004 RMK A01 T02830156  RH  047%=      5-min Rain = 0
KSLS 061550Z 21012G17KT 28/16 A3004 RMK A01 T02840158  RH  047%=      5-min Rain = 0
KSLS 061555Z 21014G19KT 29/16 A3004 RMK A01 T02860156  RH  046%=      5-min Rain = 0
KSLS 061600Z 21013KT 29/16 A3004 RMK A01 T02880157  RH  046%=      5-min Rain = 0
KSLS 061605Z 20013KT 29/16 A3004 RMK A01 T02880155  RH  045%=      5-min Rain = 0
KSLS 061610Z 20014KT 29/16 A3004 RMK A01 T02910155  RH  045%=      5-min Rain = 0
KSLS 061615Z 20012KT 29/16 A3004 RMK A01 T02930155  RH  044%=      5-min Rain = 0
KSLS 061620Z 20014KT 30/16 A3004 RMK A01 T02990155  RH  043%=      5-min Rain = 0
KSLS 061625Z 20014KT 30/15 A3004 RMK A01 T03000151  RH  041%=      5-min Rain = 0
KSLS 061630Z 20014KT 30/15 A3004 RMK A01 T03010153  RH  042%=      5-min Rain = 0
KSLS 061635Z 20014KT 30/15 A3004 RMK A01 T03030153  RH  041%=      5-min Rain = 0
KSLS 061640Z 21013KT 30/15 A3004 RMK A01 T03040153  RH  041%=      5-min Rain = 0
KSLS 061645Z 20014KT 30/15 A3004 RMK A01 T03010151  RH  041%=      5-min Rain = 0
KSLS 061650Z 21013KT 30/15 A3004 RMK A01 T03010152  RH  041%=      5-min Rain = 0
KSLS 061655Z 20013KT 31/15 A3004 RMK A01 T03090153  RH  040%=      5-min Rain = 0
KSLS 061700Z 21013G18KT 31/15 A3004 RMK A01 T03110152  RH  039%=      5-min Rain = 0
KSLS 061705Z 20014KT 31/15 A3004 RMK A01 T03110151  RH  039%=      5-min Rain = 0
KSLS 061710Z 20012KT 32/15 A3004 RMK A01 T03150153  RH  038%=      5-min Rain = 0
KSLS 061715Z 19013KT 32/16 A3004 RMK A01 T03160155  RH  039%=      5-min Rain = 0
KSLS 061720Z 19013G18KT 31/15 A3004 RMK A01 T03140153  RH  039%=      5-min Rain = 0
KSLS 061725Z 19014KT 31/15 A3004 RMK A01 T03140154  RH  039%=      5-min Rain = 0
KSLS 061730Z 20012G18KT 32/15 A3003 RMK A01 T03190154  RH  038%=      5-min Rain = 0
KSLS 061735Z 19013KT 32/15 A3004 RMK A01 T03230154  RH  037%=      5-min Rain = 0
KSLS 061740Z 21013KT 32/15 A3003 RMK A01 T03230150  RH  036%=      5-min Rain = 0
KSLS 061745Z 20013G21KT 33/15 A3003 RMK A01 T03260150  RH  035%=      5-min Rain = 0
KSLS 061750Z 20013KT 33/15 A3003 RMK A01 T03250149  RH  035%=      5-min Rain = 0
KSLS 061755Z 19012KT 33/15 A3003 RMK A01 T03320151  RH  034%=      5-min Rain = 0
KSLS 061800Z 19014KT 33/15 A3003 RMK A01 T03330148  RH  033%=      5-min Rain = 0
KSLS 061805Z 19014G19KT 34/15 A3003 RMK A01 T03370145  RH  032%=      5-min Rain = 0
KSLS 061810Z 18015G22KT 34/14 A3002 RMK A01 T03350142  RH  032%=      5-min Rain = 0
KSLS 061815Z 19014G21KT 34/14 A3002 RMK A01 T03370140  RH  031%=      5-min Rain = 0
KSLS 061820Z 19016G21KT 35/13 A3002 RMK A01 T03450131  RH  028%=      5-min Rain = 0
KSLS 061825Z 18015KT 35/13 A3002 RMK A01 T03450129  RH  028%=      5-min Rain = 0
KSLS 061830Z 19016KT 35/13 A3002 RMK A01 T03470129  RH  027%=      5-min Rain = 0
KSLS 061835Z 20016KT 35/13 A3001 RMK A01 T03490129  RH  027%=      5-min Rain = 0
KSLS 061840Z 20015KT 35/13 A3001 RMK A01 T03480127  RH  027%=      5-min Rain = 0
KSLS 061845Z 20017G24KT 35/13 A3001 RMK A01 T03520125  RH  026%=      5-min Rain = 0
KSLS 061850Z 20014G19KT 35/13 A3001 RMK A01 T03540127  RH  026%=      5-min Rain = 0
KSLS 061855Z 20014KT 35/13 A3001 RMK A01 T03530130  RH  027%=      5-min Rain = 0
KSLS 061900Z 20015G21KT 36/13 A3001 RMK A01 T03580126  RH  025%=      5-min Rain = 0
KSLS 061905Z 20015KT 36/13 A30 RMK A01 T03550126  RH  026%=      5-min Rain = 0
KSLS 061910Z 19013G19KT 36/13 A30 RMK A01 T03620128  RH  025%=      5-min Rain = 0
KSLS 061915Z 20016G22KT 36/12 A30 RMK A01 T03610123  RH  024%=      5-min Rain = 0
KSLS 061920Z 19014G19KT 36/12 A30 RMK A01 T03610122  RH  024%=      5-min Rain = 0
KSLS 061925Z 19015G21KT 37/12 A2999 RMK A01 T03690118  RH  023%=      5-min Rain = 0
KSLS 061930Z 18017G22KT 37/11 A2999 RMK A01 T03650113  RH  022%=      5-min Rain = 0
KSLS 061935Z 19015G22KT 37/12 A2999 RMK A01 T03660115  RH  022%=      5-min Rain = 0
KSLS 061940Z 19017KT 37/11 A2999 RMK A01 T03690112  RH  022%=      5-min Rain = 0
KSLS 061945Z 19015G20KT 37/11 A2999 RMK A01 T03710110  RH  021%=      5-min Rain = 0
KSLS 061950Z 20018G27KT 37/11 A2999 RMK A01 T03690107  RH  021%=      5-min Rain = 0
KSLS 061955Z 20016G21KT 37/10 A2999 RMK A01 T03710103  RH  020%=      5-min Rain = 0
KSLS 062000Z 19017G25KT 37/10 A2998 RMK A01 T03720103  RH  020%=      5-min Rain = 0
KSLS 062005Z 20016KT 38/11 A2998 RMK A01 T03760110  RH  021%=      5-min Rain = 0
KSLS 062010Z 20015G20KT 38/10 A2998 RMK A01 T03750101  RH  019%=      5-min Rain = 0
KSLS 062015Z 19015G22KT 38/11 A2998 RMK A01 T03760107  RH  020%=      5-min Rain = 0
KSLS 062020Z 18015KT 38/11 A2998 RMK A01 T03750110  RH  021%=      5-min Rain = 0
KSLS 062025Z 19017G22KT 38/11 A2998 RMK A01 T03760109  RH  020%=      5-min Rain = 0
KSLS 062030Z 19015G20KT 37/11 A2998 RMK A01 T03730109  RH  021%=      5-min Rain = 0
KSLS 062035Z 19017G23KT 37/11 A2997 RMK A01 T03730110  RH  021%=      5-min Rain = 0
KSLS 062040Z 19018G23KT 37/11 A2997 RMK A01 T03740110  RH  021%=      5-min Rain = 0
KSLS 062045Z 18017G22KT 37/11 A2997 RMK A01 T03740112  RH  021%=      5-min Rain = 0
KSLS 062050Z 19015KT 37/11 A2997 RMK A01 T03740114  RH  021%=      5-min Rain = 0
KSLS 062055Z 19018KT 38/11 A2997 RMK A01 T03780113  RH  021%=      5-min Rain = 0
KSLS 062100Z 19018G23KT 37/11 A2997 RMK A01 T03730109  RH  021%=      5-min Rain = 0
KSLS 062105Z 20017G22KT 37/11 A2997 RMK A01 T03700112  RH  022%=      5-min Rain = 0
KSLS 062110Z 21016G21KT 37/11 A2997 RMK A01 T03680114  RH  022%=      5-min Rain = 0
KSLS 062115Z 20014G19KT 37/11 A2997 RMK A01 T03650113  RH  022%=      5-min Rain = 0
KSLS 062120Z 18015KT 37/11 A2997 RMK A01 T03650111  RH  022%=      5-min Rain = 0
KSLS 062125Z 19016G21KT 36/11 A2997 RMK A01 T03630109  RH  022%=      5-min Rain = 0
KSLS 062130Z 19015KT 36/11 A2996 RMK A01 T03630112  RH  022%=      5-min Rain = 0
KSLS 062135Z 20015KT 36/11 A2996 RMK A01 T03640113  RH  022%=      5-min Rain = 0
KSLS 062140Z 19015KT 36/11 A2996 RMK A01 T03620113  RH  023%=      5-min Rain = 0
KSLS 062145Z 19014KT 36/11 A2996 RMK A01 T03620113  RH  023%=      5-min Rain = 0
KSLS 062150Z 19014KT 36/11 A2996 RMK A01 T03610112  RH  023%=      5-min Rain = 0
KSLS 062155Z 19012G17KT 36/11 A2996 RMK A01 T03630113  RH  023%=      5-min Rain = 0
KSLS 062200Z 18014KT 37/11 A2995 RMK A01 T03710113  RH  022%=      5-min Rain = 0
KSLS 062205Z 18016KT 37/11 A2995 RMK A01 T03740113  RH  021%=      5-min Rain = 0
KSLS 062210Z 17016KT 37/11 A2995 RMK A01 T03700111  RH  021%=      5-min Rain = 0
KSLS 062215Z 17014KT 37/11 A2994 RMK A01 T03650112  RH  022%=      5-min Rain = 0
KSLS 062220Z 17013KT 37/12 A2994 RMK A01 T03660115  RH  023%=      5-min Rain = 0
KSLS 062225Z 18015KT 37/12 A2994 RMK A01 T03670115  RH  022%=      5-min Rain = 0
KSLS 062230Z 17014KT 37/11 A2994 RMK A01 T03700113  RH  022%=      5-min Rain = 0
KSLS 062235Z 18013KT 37/12 A2994 RMK A01 T03730115  RH  022%=      5-min Rain = 0
KSLS 062240Z 18014KT 37/12 A2994 RMK A01 T03720116  RH  022%=      5-min Rain = 0
KSLS 062245Z 16013KT 37/12 A2994 RMK A01 T03660122  RH  023%=      5-min Rain = 0
KSLS 062250Z 17014KT 37/12 A2994 RMK A01 T03660120  RH  023%=      5-min Rain = 0
KSLS 062255Z 16014KT 37/12 A2994 RMK A01 T03700119  RH  023%=      5-min Rain = 0
KSLS 062300Z 17014KT 37/12 A2994 RMK A01 T03680119  RH  023%=      5-min Rain = 0
KSLS 062305Z 17014KT 36/12 A2994 RMK A01 T03630116  RH  023%=      5-min Rain = 0
KSLS 062310Z 17014KT 36/12 A2994 RMK A01 T03610118  RH  023%=      5-min Rain = 0
KSLS 062315Z 18012KT 36/12 A2994 RMK A01 T03610119  RH  024%=      5-min Rain = 0
KSLS 062320Z 18011KT 36/12 A2993 RMK A01 T03620122  RH  024%=      5-min Rain = 0
KSLS 062325Z 18012KT 36/12 A2993 RMK A01 T03580122  RH  025%=      5-min Rain = 0
KSLS 062330Z 17011KT 36/12 A2993 RMK A01 T03570124  RH  025%=      5-min Rain = 0
KSLS 062335Z 17014KT 36/13 A2993 RMK A01 T03550125  RH  026%=      5-min Rain = 0
KSLS 062340Z 16013G18KT 35/13 A2993 RMK A01 T03520128  RH  027%=      5-min Rain = 0
KSLS 062345Z 16011KT 35/13 A2993 RMK A01 T03500130  RH  027%=      5-min Rain = 0
KSLS 062350Z 16011KT 35/13 A2993 RMK A01 T03480132  RH  028%=      5-min Rain = 0
KSLS 062355Z 16013KT 35/13 A2993 RMK A01 T03480128  RH  027%=      5-min Rain = 0
KSLS 070000Z 16012KT 35/13 A2993 RMK A01 T03460128  RH  027%=      5-min Rain = 0
KSLS 070005Z 16011KT 35/13 A2993 RMK A01 T03450129  RH  028%=      5-min Rain = 0
KSLS 070010Z 16012KT 34/13 A2993 RMK A01 T03440127  RH  027%=      5-min Rain = 0
KSLS 070015Z 16011KT 34/13 A2993 RMK A01 T03440128  RH  028%=      5-min Rain = 0
KSLS 070020Z 16010KT 34/13 A2993 RMK A01 T03420129  RH  028%=      5-min Rain = 0
KSLS 070025Z 16011KT 34/13 A2993 RMK A01 T03410127  RH  028%=      5-min Rain = 0
KSLS 070030Z 16009KT 34/13 A2993 RMK A01 T03390129  RH  029%=      5-min Rain = 0
KSLS 070035Z 16007KT 33/13 A2993 RMK A01 T03330134  RH  030%=      5-min Rain = 0
KSLS 070040Z 16008KT 33/13 A2994 RMK A01 T03310134  RH  031%=      5-min Rain = 0
KSLS 070045Z 17009KT 33/13 A2994 RMK A01 T03330130  RH  030%=      5-min Rain = 0
KSLS 070050Z 17010KT 33/12 A2994 RMK A01 T03340124  RH  029%=      5-min Rain = 0
KSLS 070055Z 17009KT 34/12 A2995 RMK A01 T03350121  RH  028%=      5-min Rain = 0
KSLS 070100Z 17008KT 33/12 A2995 RMK A01 T03330121  RH  028%=      5-min Rain = 0
KSLS 070105Z 17009KT 33/12 A2995 RMK A01 T03330119  RH  028%=      5-min Rain = 0
KSLS 070110Z 17009KT 33/12 A2995 RMK A01 T03320121  RH  028%=      5-min Rain = 0
KSLS 070115Z 16009KT 33/12 A2996 RMK A01 T03310123  RH  029%=      5-min Rain = 0
KSLS 070120Z 17011KT 33/13 A2996 RMK A01 T03290125  RH  029%=      5-min Rain = 0
KSLS 070125Z 17011KT 33/13 A2996 RMK A01 T03270130  RH  031%=      5-min Rain = 0
KSLS 070130Z 17011KT 33/13 A2996 RMK A01 T03250134  RH  032%=      5-min Rain = 0
KSLS 070135Z 17011KT 32/14 A2996 RMK A01 T03210138  RH  034%=      5-min Rain = 0
KSLS 070140Z 17010KT 32/14 A2997 RMK A01 T03180141  RH  035%=      5-min Rain = 0
KSLS 070145Z 21013G21KT 31/15 A2998 RMK A01 T03100152  RH  039%=      5-min Rain = 0
KSLS 070150Z 24018G24KT 31/14 A2999 RMK A01 T03050138  RH  037%=      5-min Rain = 0
KSLS 070155Z 23016G25KT 30/15 A30 RMK A01 T02950146  RH  041%=      5-min Rain = 0
KSLS 070200Z 24013G18KT 29/15 A30 RMK A01 T02870150  RH  044%=      5-min Rain = 0
KSLS 070205Z 25017G23KT 28/16 A30 RMK A01 T02750160  RH  051%=      5-min Rain = 0
KSLS 070210Z 24013G19KT 27/17 A3001 RMK A01 T02650165  RH  055%=      5-min Rain = 0
KSLS 070215Z 23011KT 27/17 A3001 RMK A01 T02650165  RH  055%=      5-min Rain = 0
KSLS 070220Z 21010KT 27/17 A3001 RMK A01 T02660166  RH  055%=      5-min Rain = 0
KSLS 070225Z 19011KT 27/16 A3001 RMK A01 T02690164  RH  054%=      5-min Rain = 0
KSLS 070230Z 18012KT 27/16 A3001 RMK A01 T02710163  RH  053%=      5-min Rain = 0
KSLS 070235Z 19012KT 28/16 A3001 RMK A01 T02750158  RH  050%=      5-min Rain = 0
KSLS 070240Z 22012KT 28/15 A3001 RMK A01 T02790154  RH  048%=      5-min Rain = 0
KSLS 070245Z 21012G17KT 28/16 A3002 RMK A01 T02770156  RH  049%=      5-min Rain = 0
KSLS 070250Z 20011KT 27/16 A3002 RMK A01 T02720159  RH  051%=      5-min Rain = 0
KSLS 070255Z 19011KT 27/16 A3002 RMK A01 T02700159  RH  052%=      5-min Rain = 0
KSLS 070300Z 19012KT 27/16 A3001 RMK A01 T02710156  RH  051%=      5-min Rain = 0
KSLS 070305Z 20014G20KT 27/15 A3001 RMK A01 T02720153  RH  049%=      5-min Rain = 0
KSLS 070310Z 19015KT 27/15 A30 RMK A01 T02730151  RH  048%=      5-min Rain = 0
KSLS 070315Z 19015KT 27/15 A2999 RMK A01 T02740148  RH  047%=      5-min Rain = 0
KSLS 070320Z 19014G20KT 28/15 A2999 RMK A01 T02750147  RH  046%=      5-min Rain = 0
KSLS 070325Z 19013G18KT 28/15 A2999 RMK A01 T02760145  RH  046%=      5-min Rain = 0
KSLS 070330Z 19014G19KT 28/14 A2999 RMK A01 T02770143  RH  045%=      5-min Rain = 0
KSLS 070335Z 19015KT 28/14 A2998 RMK A01 T02780141  RH  044%=      5-min Rain = 0
KSLS 070340Z 19013KT 28/14 A2998 RMK A01 T02780140  RH  044%=      5-min Rain = 0
KSLS 070345Z 18011KT 28/14 A2998 RMK A01 T02770140  RH  044%=      5-min Rain = 0
KSLS 070350Z 18014KT 28/14 A2997 RMK A01 T02780137  RH  043%=      5-min Rain = 0
KSLS 070355Z 18016G21KT 28/13 A2997 RMK A01 T02830129  RH  040%=      5-min Rain = 0
KSLS 070400Z 20013KT 29/13 A2997 RMK A01 T02850127  RH  038%=      5-min Rain = 0
KSLS 070405Z 21011KT 28/13 A2997 RMK A01 T02840128  RH  039%=      5-min Rain = 0
KSLS 070410Z 21012KT 28/13 A2998 RMK A01 T02840127  RH  039%=      5-min Rain = 0
KSLS 070415Z 21013KT 29/13 A2998 RMK A01 T02860126  RH  038%=      5-min Rain = 0
KSLS 070420Z 20013KT 29/13 A2997 RMK A01 T02880126  RH  038%=      5-min Rain = 0
KSLS 070425Z 20014KT 29/13 A2997 RMK A01 T02890126  RH  037%=      5-min Rain = 0
KSLS 070430Z 20014KT 29/13 A2997 RMK A01 T02890128  RH  038%=      5-min Rain = 0
KSLS 070435Z 20014KT 29/13 A2997 RMK A01 T02880130  RH  038%=      5-min Rain = 0
KSLS 070440Z 20013KT 29/13 A2997 RMK A01 T02880131  RH  039%=      5-min Rain = 0
KSLS 070445Z 20012KT 29/13 A2997 RMK A01 T02870132  RH  039%=      5-min Rain = 0
KSLS 070450Z 20013KT 29/13 A2997 RMK A01 T02850133  RH  040%=      5-min Rain = 0
KSLS 070455Z 20013KT 29/13 A2997 RMK A01 T02860134  RH  040%=      5-min Rain = 0

Page generated in 0.0086 seconds.